sensor_id;sensor_type;location;lat;lon;timestamp;P1;durP1;ratioP1;P2;durP2;ratioP2
46863;SDS011;32598;50.204;6.408;2023-02-22T00:00:21;26.65;;;14.15;;
46863;SDS011;32598;50.204;6.408;2023-02-22T00:02:49;27.10;;;13.50;;
46863;SDS011;32598;50.204;6.408;2023-02-22T00:05:16;33.28;;;15.68;;
46863;SDS011;32598;50.204;6.408;2023-02-22T00:07:43;26.15;;;12.60;;
46863;SDS011;32598;50.204;6.408;2023-02-22T00:10:09;30.08;;;14.05;;
46863;SDS011;32598;50.204;6.408;2023-02-22T00:12:37;26.48;;;14.05;;
46863;SDS011;32598;50.204;6.408;2023-02-22T00:15:03;26.33;;;13.63;;
46863;SDS011;32598;50.204;6.408;2023-02-22T00:17:29;27.42;;;14.38;;
46863;SDS011;32598;50.204;6.408;2023-02-22T00:19:54;27.55;;;14.00;;
46863;SDS011;32598;50.204;6.408;2023-02-22T00:22:20;29.52;;;15.15;;
46863;SDS011;32598;50.204;6.408;2023-02-22T00:24:45;27.08;;;15.10;;
46863;SDS011;32598;50.204;6.408;2023-02-22T00:27:10;30.57;;;13.97;;
46863;SDS011;32598;50.204;6.408;2023-02-22T00:29:35;28.20;;;14.35;;
46863;SDS011;32598;50.204;6.408;2023-02-22T00:32:00;25.85;;;12.90;;
46863;SDS011;32598;50.204;6.408;2023-02-22T00:34:26;28.65;;;14.45;;
46863;SDS011;32598;50.204;6.408;2023-02-22T00:36:51;30.00;;;14.93;;
46863;SDS011;32598;50.204;6.408;2023-02-22T00:39:16;25.38;;;13.40;;
46863;SDS011;32598;50.204;6.408;2023-02-22T00:41:41;28.95;;;14.05;;
46863;SDS011;32598;50.204;6.408;2023-02-22T00:44:07;25.25;;;13.43;;
46863;SDS011;32598;50.204;6.408;2023-02-22T00:46:32;30.37;;;14.67;;
46863;SDS011;32598;50.204;6.408;2023-02-22T00:48:57;26.25;;;14.07;;
46863;SDS011;32598;50.204;6.408;2023-02-22T00:51:26;26.92;;;14.07;;
46863;SDS011;32598;50.204;6.408;2023-02-22T00:53:52;29.65;;;15.07;;
46863;SDS011;32598;50.204;6.408;2023-02-22T00:56:17;25.25;;;13.85;;
46863;SDS011;32598;50.204;6.408;2023-02-22T00:58:43;30.73;;;14.27;;
46863;SDS011;32598;50.204;6.408;2023-02-22T01:01:08;31.42;;;14.85;;
46863;SDS011;32598;50.204;6.408;2023-02-22T01:03:33;24.20;;;12.65;;
46863;SDS011;32598;50.204;6.408;2023-02-22T01:05:59;24.77;;;13.60;;
46863;SDS011;32598;50.204;6.408;2023-02-22T01:08:24;25.95;;;13.13;;
46863;SDS011;32598;50.204;6.408;2023-02-22T01:10:49;25.80;;;13.30;;
46863;SDS011;32598;50.204;6.408;2023-02-22T01:13:16;27.35;;;13.30;;
46863;SDS011;32598;50.204;6.408;2023-02-22T01:15:43;25.67;;;12.52;;
46863;SDS011;32598;50.204;6.408;2023-02-22T01:18:09;24.08;;;13.88;;
46863;SDS011;32598;50.204;6.408;2023-02-22T01:20:36;28.20;;;14.38;;
46863;SDS011;32598;50.204;6.408;2023-02-22T01:23:02;30.42;;;14.38;;
46863;SDS011;32598;50.204;6.408;2023-02-22T01:25:30;30.75;;;14.90;;
46863;SDS011;32598;50.204;6.408;2023-02-22T01:27:56;28.50;;;14.35;;
46863;SDS011;32598;50.204;6.408;2023-02-22T01:30:22;26.98;;;13.80;;
46863;SDS011;32598;50.204;6.408;2023-02-22T01:32:48;31.13;;;14.80;;
46863;SDS011;32598;50.204;6.408;2023-02-22T01:35:16;27.33;;;14.13;;
46863;SDS011;32598;50.204;6.408;2023-02-22T01:37:42;29.15;;;14.25;;
46863;SDS011;32598;50.204;6.408;2023-02-22T01:40:09;28.13;;;13.95;;
46863;SDS011;32598;50.204;6.408;2023-02-22T01:42:40;27.55;;;13.68;;
46863;SDS011;32598;50.204;6.408;2023-02-22T01:47:49;30.98;;;15.20;;
46863;SDS011;32598;50.204;6.408;2023-02-22T01:50:15;30.75;;;14.23;;
46863;SDS011;32598;50.204;6.408;2023-02-22T01:52:40;26.42;;;13.30;;
46863;SDS011;32598;50.204;6.408;2023-02-22T01:55:05;23.35;;;13.23;;
46863;SDS011;32598;50.204;6.408;2023-02-22T01:57:32;26.33;;;13.75;;
46863;SDS011;32598;50.204;6.408;2023-02-22T02:00:00;27.30;;;12.82;;
46863;SDS011;32598;50.204;6.408;2023-02-22T02:02:26;24.20;;;13.07;;
46863;SDS011;32598;50.204;6.408;2023-02-22T02:04:52;25.42;;;13.32;;
46863;SDS011;32598;50.204;6.408;2023-02-22T02:07:19;32.65;;;14.55;;
46863;SDS011;32598;50.204;6.408;2023-02-22T02:09:51;29.48;;;14.23;;
46863;SDS011;32598;50.204;6.408;2023-02-22T02:12:18;26.27;;;14.30;;
46863;SDS011;32598;50.204;6.408;2023-02-22T02:14:44;27.25;;;13.77;;
46863;SDS011;32598;50.204;6.408;2023-02-22T02:17:11;26.33;;;13.82;;
46863;SDS011;32598;50.204;6.408;2023-02-22T02:22:14;32.08;;;14.27;;
46863;SDS011;32598;50.204;6.408;2023-02-22T02:24:57;31.08;;;15.18;;
46863;SDS011;32598;50.204;6.408;2023-02-22T02:28:16;28.23;;;15.02;;
46863;SDS011;32598;50.204;6.408;2023-02-22T02:32:55;28.65;;;14.50;;
46863;SDS011;32598;50.204;6.408;2023-02-22T02:35:27;29.23;;;14.43;;
46863;SDS011;32598;50.204;6.408;2023-02-22T02:38:00;29.50;;;14.50;;
46863;SDS011;32598;50.204;6.408;2023-02-22T02:42:54;26.87;;;13.87;;
46863;SDS011;32598;50.204;6.408;2023-02-22T02:45:23;28.10;;;14.02;;
46863;SDS011;32598;50.204;6.408;2023-02-22T02:47:52;30.75;;;13.35;;
46863;SDS011;32598;50.204;6.408;2023-02-22T02:50:28;26.98;;;13.60;;
46863;SDS011;32598;50.204;6.408;2023-02-22T02:52:56;26.13;;;13.25;;
46863;SDS011;32598;50.204;6.408;2023-02-22T02:55:22;26.42;;;13.15;;
46863;SDS011;32598;50.204;6.408;2023-02-22T02:57:48;26.23;;;13.20;;
46863;SDS011;32598;50.204;6.408;2023-02-22T03:00:14;27.35;;;12.50;;
46863;SDS011;32598;50.204;6.408;2023-02-22T03:02:52;27.10;;;13.60;;
46863;SDS011;32598;50.204;6.408;2023-02-22T03:18:08;26.25;;;13.10;;
46863;SDS011;32598;50.204;6.408;2023-02-22T03:20:45;24.45;;;12.13;;
46863;SDS011;32598;50.204;6.408;2023-02-22T03:23:17;26.65;;;12.75;;
46863;SDS011;32598;50.204;6.408;2023-02-22T03:25:50;26.70;;;12.30;;
46863;SDS011;32598;50.204;6.408;2023-02-22T03:28:16;27.17;;;12.95;;
46863;SDS011;32598;50.204;6.408;2023-02-22T03:30:56;23.20;;;11.60;;
46863;SDS011;32598;50.204;6.408;2023-02-22T03:33:24;27.40;;;12.95;;
46863;SDS011;32598;50.204;6.408;2023-02-22T03:36:59;27.33;;;13.30;;
46863;SDS011;32598;50.204;6.408;2023-02-22T03:41:19;27.75;;;12.38;;
46863;SDS011;32598;50.204;6.408;2023-02-22T03:43:48;21.17;;;12.05;;
46863;SDS011;32598;50.204;6.408;2023-02-22T03:46:14;27.55;;;12.82;;
46863;SDS011;32598;50.204;6.408;2023-02-22T03:51:05;24.60;;;12.75;;
46863;SDS011;32598;50.204;6.408;2023-02-22T03:53:34;25.65;;;13.32;;
46863;SDS011;32598;50.204;6.408;2023-02-22T03:56:01;31.15;;;14.40;;
46863;SDS011;32598;50.204;6.408;2023-02-22T03:58:27;25.20;;;13.25;;
46863;SDS011;32598;50.204;6.408;2023-02-22T04:00:54;27.77;;;13.95;;
46863;SDS011;32598;50.204;6.408;2023-02-22T04:03:20;33.47;;;14.90;;
46863;SDS011;32598;50.204;6.408;2023-02-22T04:05:46;34.90;;;14.95;;
46863;SDS011;32598;50.204;6.408;2023-02-22T04:08:11;29.63;;;14.07;;
46863;SDS011;32598;50.204;6.408;2023-02-22T04:10:36;27.52;;;13.70;;
46863;SDS011;32598;50.204;6.408;2023-02-22T04:13:02;31.63;;;14.18;;
46863;SDS011;32598;50.204;6.408;2023-02-22T04:15:27;31.17;;;15.05;;
46863;SDS011;32598;50.204;6.408;2023-02-22T04:17:52;28.88;;;14.13;;
46863;SDS011;32598;50.204;6.408;2023-02-22T04:20:17;28.65;;;15.40;;
46863;SDS011;32598;50.204;6.408;2023-02-22T04:22:43;29.13;;;14.15;;
46863;SDS011;32598;50.204;6.408;2023-02-22T04:25:09;31.65;;;14.75;;
46863;SDS011;32598;50.204;6.408;2023-02-22T04:27:34;30.67;;;14.43;;
46863;SDS011;32598;50.204;6.408;2023-02-22T04:29:59;32.47;;;13.38;;
46863;SDS011;32598;50.204;6.408;2023-02-22T04:32:24;32.00;;;15.27;;
46863;SDS011;32598;50.204;6.408;2023-02-22T04:34:50;33.47;;;15.20;;
46863;SDS011;32598;50.204;6.408;2023-02-22T04:37:15;36.60;;;17.13;;
46863;SDS011;32598;50.204;6.408;2023-02-22T04:39:40;29.85;;;14.85;;
46863;SDS011;32598;50.204;6.408;2023-02-22T04:42:05;37.20;;;17.03;;
46863;SDS011;32598;50.204;6.408;2023-02-22T04:44:30;30.40;;;15.70;;
46863;SDS011;32598;50.204;6.408;2023-02-22T04:46:56;38.42;;;17.38;;
46863;SDS011;32598;50.204;6.408;2023-02-22T04:49:21;36.88;;;16.77;;
46863;SDS011;32598;50.204;6.408;2023-02-22T04:51:46;35.15;;;15.35;;
46863;SDS011;32598;50.204;6.408;2023-02-22T04:54:12;42.75;;;18.83;;
46863;SDS011;32598;50.204;6.408;2023-02-22T04:56:37;39.55;;;18.00;;
46863;SDS011;32598;50.204;6.408;2023-02-22T04:59:02;33.67;;;17.75;;
46863;SDS011;32598;50.204;6.408;2023-02-22T05:01:31;34.63;;;16.60;;
46863;SDS011;32598;50.204;6.408;2023-02-22T05:03:57;36.33;;;16.92;;
46863;SDS011;32598;50.204;6.408;2023-02-22T05:06:22;41.50;;;17.85;;
46863;SDS011;32598;50.204;6.408;2023-02-22T05:08:48;38.75;;;17.55;;
46863;SDS011;32598;50.204;6.408;2023-02-22T05:11:13;38.30;;;17.47;;
46863;SDS011;32598;50.204;6.408;2023-02-22T05:13:38;40.00;;;17.92;;
46863;SDS011;32598;50.204;6.408;2023-02-22T05:16:03;37.03;;;18.00;;
46863;SDS011;32598;50.204;6.408;2023-02-22T05:18:29;36.63;;;18.08;;
46863;SDS011;32598;50.204;6.408;2023-02-22T05:20:54;41.67;;;18.23;;
46863;SDS011;32598;50.204;6.408;2023-02-22T05:23:19;44.58;;;19.42;;
46863;SDS011;32598;50.204;6.408;2023-02-22T05:25:44;37.60;;;17.92;;
46863;SDS011;32598;50.204;6.408;2023-02-22T05:28:11;43.97;;;19.13;;
46863;SDS011;32598;50.204;6.408;2023-02-22T05:30:36;42.30;;;19.13;;
46863;SDS011;32598;50.204;6.408;2023-02-22T05:33:05;47.00;;;19.85;;
46863;SDS011;32598;50.204;6.408;2023-02-22T05:35:33;44.45;;;20.45;;
46863;SDS011;32598;50.204;6.408;2023-02-22T05:37:58;47.10;;;21.95;;
46863;SDS011;32598;50.204;6.408;2023-02-22T05:40:26;43.38;;;19.15;;
46863;SDS011;32598;50.204;6.408;2023-02-22T05:42:52;44.53;;;19.23;;
46863;SDS011;32598;50.204;6.408;2023-02-22T05:45:18;45.78;;;20.10;;
46863;SDS011;32598;50.204;6.408;2023-02-22T05:47:43;41.83;;;19.75;;
46863;SDS011;32598;50.204;6.408;2023-02-22T05:50:09;46.80;;;20.90;;
46863;SDS011;32598;50.204;6.408;2023-02-22T05:52:34;51.05;;;22.42;;
46863;SDS011;32598;50.204;6.408;2023-02-22T05:55:00;44.75;;;20.70;;
46863;SDS011;32598;50.204;6.408;2023-02-22T05:57:25;44.70;;;20.48;;
46863;SDS011;32598;50.204;6.408;2023-02-22T05:59:50;49.47;;;20.77;;
46863;SDS011;32598;50.204;6.408;2023-02-22T06:02:16;44.83;;;20.95;;
46863;SDS011;32598;50.204;6.408;2023-02-22T06:04:44;48.15;;;20.58;;
46863;SDS011;32598;50.204;6.408;2023-02-22T06:07:09;45.90;;;20.20;;
46863;SDS011;32598;50.204;6.408;2023-02-22T06:09:34;55.00;;;20.70;;
46863;SDS011;32598;50.204;6.408;2023-02-22T06:11:59;42.63;;;18.02;;
46863;SDS011;32598;50.204;6.408;2023-02-22T06:14:25;43.13;;;18.75;;
46863;SDS011;32598;50.204;6.408;2023-02-22T06:16:53;38.33;;;18.17;;
46863;SDS011;32598;50.204;6.408;2023-02-22T06:19:19;43.42;;;19.42;;
46863;SDS011;32598;50.204;6.408;2023-02-22T06:21:54;38.95;;;18.23;;
46863;SDS011;32598;50.204;6.408;2023-02-22T06:24:20;38.70;;;18.75;;
46863;SDS011;32598;50.204;6.408;2023-02-22T06:26:46;40.33;;;19.48;;
46863;SDS011;32598;50.204;6.408;2023-02-22T06:29:11;45.47;;;21.65;;
46863;SDS011;32598;50.204;6.408;2023-02-22T06:31:37;44.08;;;19.98;;
46863;SDS011;32598;50.204;6.408;2023-02-22T06:34:02;47.05;;;21.65;;
46863;SDS011;32598;50.204;6.408;2023-02-22T06:36:27;47.60;;;22.10;;
46863;SDS011;32598;50.204;6.408;2023-02-22T06:38:54;52.90;;;23.05;;
46863;SDS011;32598;50.204;6.408;2023-02-22T06:41:20;50.90;;;24.38;;
46863;SDS011;32598;50.204;6.408;2023-02-22T06:43:46;52.30;;;24.45;;
46863;SDS011;32598;50.204;6.408;2023-02-22T06:46:11;51.65;;;24.27;;
46863;SDS011;32598;50.204;6.408;2023-02-22T06:48:37;47.22;;;22.13;;
46863;SDS011;32598;50.204;6.408;2023-02-22T06:51:04;48.40;;;21.73;;
46863;SDS011;32598;50.204;6.408;2023-02-22T06:53:29;50.85;;;23.98;;
46863;SDS011;32598;50.204;6.408;2023-02-22T06:55:54;54.40;;;22.48;;
46863;SDS011;32598;50.204;6.408;2023-02-22T06:58:19;50.67;;;22.75;;
46863;SDS011;32598;50.204;6.408;2023-02-22T07:00:45;44.45;;;21.02;;
46863;SDS011;32598;50.204;6.408;2023-02-22T07:03:10;46.72;;;20.55;;
46863;SDS011;32598;50.204;6.408;2023-02-22T07:05:35;50.65;;;22.10;;
46863;SDS011;32598;50.204;6.408;2023-02-22T07:08:02;52.42;;;21.52;;
46863;SDS011;32598;50.204;6.408;2023-02-22T07:10:29;46.20;;;20.55;;
46863;SDS011;32598;50.204;6.408;2023-02-22T07:12:54;50.90;;;21.02;;
46863;SDS011;32598;50.204;6.408;2023-02-22T07:15:20;51.55;;;21.35;;
46863;SDS011;32598;50.204;6.408;2023-02-22T07:17:47;50.33;;;21.50;;
46863;SDS011;32598;50.204;6.408;2023-02-22T07:20:12;47.72;;;19.70;;
46863;SDS011;32598;50.204;6.408;2023-02-22T07:22:38;53.50;;;20.77;;
46863;SDS011;32598;50.204;6.408;2023-02-22T07:25:04;49.25;;;21.38;;
46863;SDS011;32598;50.204;6.408;2023-02-22T07:27:30;43.70;;;18.50;;
46863;SDS011;32598;50.204;6.408;2023-02-22T07:29:55;45.55;;;19.83;;
46863;SDS011;32598;50.204;6.408;2023-02-22T07:32:20;45.85;;;20.58;;
46863;SDS011;32598;50.204;6.408;2023-02-22T07:34:45;38.63;;;18.65;;
46863;SDS011;32598;50.204;6.408;2023-02-22T07:37:10;43.72;;;19.10;;
46863;SDS011;32598;50.204;6.408;2023-02-22T07:39:36;46.15;;;20.65;;
46863;SDS011;32598;50.204;6.408;2023-02-22T07:42:02;48.83;;;20.58;;
46863;SDS011;32598;50.204;6.408;2023-02-22T07:44:27;48.30;;;20.90;;
46863;SDS011;32598;50.204;6.408;2023-02-22T07:46:52;46.97;;;21.40;;
46863;SDS011;32598;50.204;6.408;2023-02-22T07:49:17;52.47;;;22.00;;
46863;SDS011;32598;50.204;6.408;2023-02-22T07:51:43;57.55;;;22.80;;
46863;SDS011;32598;50.204;6.408;2023-02-22T07:54:08;50.20;;;22.10;;
46863;SDS011;32598;50.204;6.408;2023-02-22T07:56:33;45.80;;;20.92;;
46863;SDS011;32598;50.204;6.408;2023-02-22T07:58:58;45.13;;;20.35;;
46863;SDS011;32598;50.204;6.408;2023-02-22T08:01:25;43.80;;;21.08;;
46863;SDS011;32598;50.204;6.408;2023-02-22T08:03:50;43.10;;;20.42;;
46863;SDS011;32598;50.204;6.408;2023-02-22T08:06:16;36.80;;;18.27;;
46863;SDS011;32598;50.204;6.408;2023-02-22T08:08:41;31.52;;;16.25;;
46863;SDS011;32598;50.204;6.408;2023-02-22T08:11:07;29.23;;;14.93;;
46863;SDS011;32598;50.204;6.408;2023-02-22T08:13:33;36.42;;;18.30;;
46863;SDS011;32598;50.204;6.408;2023-02-22T08:15:58;41.88;;;19.63;;
46863;SDS011;32598;50.204;6.408;2023-02-22T08:18:24;39.20;;;17.50;;
46863;SDS011;32598;50.204;6.408;2023-02-22T08:20:50;43.47;;;19.33;;
46863;SDS011;32598;50.204;6.408;2023-02-22T08:23:16;40.83;;;19.35;;
46863;SDS011;32598;50.204;6.408;2023-02-22T08:25:42;38.10;;;16.77;;
46863;SDS011;32598;50.204;6.408;2023-02-22T08:28:08;36.33;;;17.33;;
46863;SDS011;32598;50.204;6.408;2023-02-22T08:30:34;29.48;;;14.55;;
46863;SDS011;32598;50.204;6.408;2023-02-22T08:32:59;29.05;;;13.98;;
46863;SDS011;32598;50.204;6.408;2023-02-22T08:35:30;29.75;;;14.25;;
46863;SDS011;32598;50.204;6.408;2023-02-22T08:38:00;35.17;;;15.70;;
46863;SDS011;32598;50.204;6.408;2023-02-22T08:40:27;33.25;;;15.50;;
46863;SDS011;32598;50.204;6.408;2023-02-22T08:42:53;30.27;;;15.02;;
46863;SDS011;32598;50.204;6.408;2023-02-22T08:45:18;26.98;;;14.70;;
46863;SDS011;32598;50.204;6.408;2023-02-22T08:47:44;31.85;;;16.75;;
46863;SDS011;32598;50.204;6.408;2023-02-22T08:50:13;34.83;;;16.55;;
46863;SDS011;32598;50.204;6.408;2023-02-22T08:52:39;36.75;;;18.35;;
46863;SDS011;32598;50.204;6.408;2023-02-22T08:55:05;36.40;;;17.70;;
46863;SDS011;32598;50.204;6.408;2023-02-22T08:57:30;36.60;;;18.65;;
46863;SDS011;32598;50.204;6.408;2023-02-22T08:59:55;36.10;;;17.83;;
46863;SDS011;32598;50.204;6.408;2023-02-22T09:02:21;39.55;;;17.40;;
46863;SDS011;32598;50.204;6.408;2023-02-22T09:04:47;35.55;;;17.35;;
46863;SDS011;32598;50.204;6.408;2023-02-22T09:07:12;39.80;;;18.45;;
46863;SDS011;32598;50.204;6.408;2023-02-22T09:09:37;33.53;;;16.55;;
46863;SDS011;32598;50.204;6.408;2023-02-22T09:12:03;32.58;;;15.70;;
46863;SDS011;32598;50.204;6.408;2023-02-22T09:14:28;31.63;;;16.85;;
46863;SDS011;32598;50.204;6.408;2023-02-22T09:16:53;32.85;;;16.27;;
46863;SDS011;32598;50.204;6.408;2023-02-22T09:19:18;29.85;;;15.55;;
46863;SDS011;32598;50.204;6.408;2023-02-22T09:21:44;32.63;;;16.63;;
46863;SDS011;32598;50.204;6.408;2023-02-22T09:24:09;34.42;;;16.48;;
46863;SDS011;32598;50.204;6.408;2023-02-22T09:26:35;34.67;;;18.17;;
46863;SDS011;32598;50.204;6.408;2023-02-22T09:29:03;33.05;;;16.20;;
46863;SDS011;32598;50.204;6.408;2023-02-22T09:31:28;29.48;;;15.13;;
46863;SDS011;32598;50.204;6.408;2023-02-22T09:33:53;28.48;;;15.38;;
46863;SDS011;32598;50.204;6.408;2023-02-22T09:36:18;30.70;;;16.38;;
46863;SDS011;32598;50.204;6.408;2023-02-22T09:38:45;30.33;;;15.55;;
46863;SDS011;32598;50.204;6.408;2023-02-22T09:41:25;33.33;;;15.07;;
46863;SDS011;32598;50.204;6.408;2023-02-22T09:44:15;30.17;;;14.68;;
46863;SDS011;32598;50.204;6.408;2023-02-22T09:46:42;26.77;;;13.98;;
